Terminal Aerodrome Forecast
Issued by NWS

Home | Current Version | Previous Version | Text Only | Print | Product List | Glossary On
Versions: 1 2 3 4 5 6 7 8 9 10 11 12 13 14 15 16 17 18 19 20 21
964
FTUS44 KLIX 231120
TAFMSY
TAF
KMSY 231120Z 2312/2412 08004KT P6SM FEW070
     FM232100 14006KT P6SM SKC
     FM240800 16006KT 3SM BR BKN008
     FM240900 16006KT 2SM BR BKN003
     FM241000 16005KT 1SM BR OVC003=

USA.gov is the U.S. government's official web portal to all federal, state and local government web resources and services.